createdAt,value
2023-04-02T00:00:18.855Z,4.13
2023-04-02T00:02:48.354Z,4.63
2023-04-02T00:05:45.278Z,4.10
2023-04-02T00:08:20.898Z,5.70
2023-04-02T00:10:50.157Z,5.25
2023-04-02T00:13:28.253Z,5.97
2023-04-02T00:15:58.248Z,3.80
2023-04-02T00:18:26.462Z,9.25
2023-04-02T00:21:05.113Z,6.88
2023-04-02T00:23:32.458Z,8.15
2023-04-02T00:25:59.700Z,5.05
2023-04-02T00:28:26.874Z,4.20
2023-04-02T00:30:58.472Z,4.50
2023-04-02T00:33:28.181Z,4.75
2023-04-02T00:35:57.079Z,4.57
2023-04-02T00:38:26.634Z,5.93
2023-04-02T00:40:56.676Z,4.95
2023-04-02T00:43:25.990Z,5.05
2023-04-02T00:45:56.566Z,6.78
2023-04-02T00:48:36.110Z,6.32
2023-04-02T00:51:16.049Z,6.95
2023-04-02T00:53:46.248Z,6.72
2023-04-02T00:56:19.623Z,9.90
2023-04-02T00:58:51.688Z,7.03
2023-04-02T01:01:23.420Z,6.68
2023-04-02T01:03:57.243Z,7.70
2023-04-02T01:06:29.385Z,9.70
2023-04-02T01:09:11.377Z,7.15
2023-04-02T01:12:00.422Z,8.30
2023-04-02T01:14:39.151Z,4.80
2023-04-02T01:17:17.643Z,5.72
2023-04-02T01:20:00.931Z,5.93
2023-04-02T01:22:34.527Z,5.18
2023-04-02T01:25:02.888Z,5.60
2023-04-02T01:27:35.474Z,7.30
2023-04-02T01:30:06.511Z,8.90
2023-04-02T01:32:34.711Z,6.38
2023-04-02T01:35:01.923Z,5.68
2023-04-02T01:37:38.956Z,9.35
2023-04-02T01:40:20.226Z,7.18
2023-04-02T01:42:54.967Z,8.15
2023-04-02T01:45:24.158Z,5.75
2023-04-02T01:47:52.173Z,5.50
2023-04-02T01:50:27.766Z,5.32
2023-04-02T01:52:57.066Z,7.32
2023-04-02T01:55:31.348Z,7.03
2023-04-02T01:58:00.787Z,8.27
2023-04-02T02:00:31.427Z,10.45
2023-04-02T02:03:00.953Z,7.47
2023-04-02T02:05:29.139Z,11.25
2023-04-02T02:07:58.634Z,8.40
2023-04-02T02:10:28.959Z,7.25
2023-04-02T02:12:58.157Z,7.53
2023-04-02T02:15:25.371Z,7.75
2023-04-02T02:17:58.706Z,9.73
2023-04-02T02:20:27.899Z,7.65
2023-04-02T02:22:56.599Z,9.85
2023-04-02T02:25:27.839Z,12.23
2023-04-02T02:28:02.453Z,8.55
2023-04-02T02:30:34.520Z,6.82
2023-04-02T02:33:08.211Z,6.65
2023-04-02T02:35:40.812Z,6.35
2023-04-02T02:38:27.802Z,8.13
2023-04-02T02:41:03.958Z,8.52
2023-04-02T02:43:32.365Z,9.43
2023-04-02T02:46:01.434Z,8.43
2023-04-02T02:48:36.093Z,7.85
2023-04-02T02:51:10.670Z,8.63
2023-04-02T02:53:48.310Z,7.35
2023-04-02T02:56:16.106Z,6.50
2023-04-02T02:58:44.666Z,8.55
2023-04-02T03:01:30.309Z,8.52
2023-04-02T03:04:09.808Z,9.73
2023-04-02T03:06:41.992Z,8.88
2023-04-02T03:09:17.265Z,9.15
2023-04-02T03:11:52.353Z,8.52
2023-04-02T03:14:29.283Z,8.45
2023-04-02T03:17:03.307Z,7.13
2023-04-02T03:19:39.844Z,8.20
2023-04-02T03:22:15.469Z,6.88
2023-04-02T03:24:52.123Z,10.18
2023-04-02T03:27:22.855Z,8.30
2023-04-02T03:30:13.658Z,9.32
2023-04-02T03:32:43.926Z,6.25
2023-04-02T03:35:22.158Z,9.48
2023-04-02T03:37:56.044Z,8.07
2023-04-02T03:40:28.120Z,7.57
2023-04-02T03:43:03.815Z,8.30
2023-04-02T03:45:35.996Z,9.13
2023-04-02T03:48:09.436Z,11.35
2023-04-02T03:50:43.651Z,10.38
2023-04-02T03:53:12.451Z,8.63
2023-04-02T03:55:42.637Z,10.32
2023-04-02T03:58:16.138Z,6.70
2023-04-02T04:03:16.556Z,14.18
2023-04-02T04:05:49.830Z,12.65
2023-04-02T04:08:20.989Z,20.77
2023-04-02T04:10:52.337Z,21.35
2023-04-02T04:13:28.895Z,26.27
2023-04-02T04:16:04.185Z,22.85
2023-04-02T04:18:39.769Z,21.42
2023-04-02T04:21:18.938Z,24.80
2023-04-02T04:23:50.906Z,27.30
2023-04-02T04:26:24.631Z,10.13
2023-04-02T04:29:06.976Z,9.15
2023-04-02T04:31:41.191Z,11.95
2023-04-02T04:34:15.626Z,6.63
2023-04-02T04:36:49.585Z,5.13
2023-04-02T04:39:22.185Z,1.88
2023-04-02T04:41:52.024Z,0.65
2023-04-02T04:44:24.705Z,0.25
2023-04-02T04:47:00.124Z,0.90
2023-04-02T04:49:33.401Z,0.57
2023-04-02T04:52:09.061Z,0.40
2023-04-02T04:54:38.961Z,1.67
2023-04-02T04:57:21.493Z,0.50
2023-04-02T04:59:55.567Z,1.73
2023-04-02T05:02:27.474Z,0.30
2023-04-02T05:04:55.506Z,1.10
2023-04-02T05:07:28.449Z,0.30
2023-04-02T05:10:00.504Z,0.45
2023-04-02T05:12:34.565Z,0.30
2023-04-02T05:15:06.132Z,2.92
2023-04-02T05:17:39.546Z,1.52
2023-04-02T05:20:14.468Z,0.80
2023-04-02T05:22:49.229Z,0.45
2023-04-02T05:25:22.041Z,1.08
2023-04-02T05:27:56.033Z,0.40
2023-04-02T05:30:47.658Z,0.90
2023-04-02T05:33:23.169Z,1.60
2023-04-02T05:35:57.009Z,0.70
2023-04-02T05:38:29.086Z,0.80
2023-04-02T05:41:01.992Z,0.73
2023-04-02T05:43:34.075Z,1.10
2023-04-02T05:46:13.481Z,0.68
2023-04-02T05:48:43.089Z,0.80
2023-04-02T05:51:18.922Z,0.70
2023-04-02T05:53:52.506Z,0.70
2023-04-02T05:56:23.709Z,1.02
2023-04-02T06:01:35.400Z,1.00
2023-04-02T06:04:16.362Z,0.50
2023-04-02T06:06:49.376Z,0.73
2023-04-02T06:09:24.250Z,1.25
2023-04-02T06:12:01.684Z,1.77
2023-04-02T06:14:30.060Z,1.05
2023-04-02T06:16:58.140Z,0.50
2023-04-02T06:19:30.993Z,0.63
2023-04-02T06:22:08.726Z,1.45
2023-04-02T06:24:40.166Z,1.50
2023-04-02T06:27:12.873Z,1.45
2023-04-02T06:29:44.493Z,0.65
2023-04-02T06:32:15.893Z,0.50
2023-04-02T06:34:45.128Z,1.00
2023-04-02T06:37:23.416Z,0.55
2023-04-02T06:39:59.040Z,0.32
2023-04-02T06:42:31.015Z,0.50
2023-04-02T06:45:23.854Z,0.43
2023-04-02T06:48:17.101Z,0.40
2023-04-02T06:50:48.718Z,0.70
2023-04-02T06:53:21.799Z,2.22
2023-04-02T06:55:55.000Z,0.70
2023-04-02T06:58:27.017Z,2.78
2023-04-02T07:00:55.301Z,0.60
2023-04-02T07:03:40.308Z,0.80
2023-04-02T07:06:15.935Z,0.70
2023-04-02T07:08:43.718Z,1.10
2023-04-02T07:11:15.192Z,2.17
2023-04-02T07:13:42.829Z,0.70
2023-04-02T07:16:15.181Z,0.60
2023-04-02T07:18:43.296Z,0.40
2023-04-02T07:21:10.948Z,0.43
2023-04-02T07:23:38.348Z,0.30
2023-04-02T07:26:06.785Z,0.40
2023-04-02T07:28:35.461Z,0.50
2023-04-02T07:31:02.798Z,1.85
2023-04-02T07:33:31.096Z,0.30
2023-04-02T07:35:58.554Z,0.30
2023-04-02T07:38:25.823Z,0.88
2023-04-02T07:40:53.390Z,1.73
2023-04-02T07:43:20.676Z,0.73
2023-04-02T07:45:50.095Z,0.68
2023-04-02T07:48:17.292Z,0.70
2023-04-02T07:50:44.459Z,0.70
2023-04-02T07:53:26.034Z,0.68
2023-04-02T07:55:53.477Z,1.52
2023-04-02T07:58:20.642Z,1.30
2023-04-02T08:00:49.305Z,0.93
2023-04-02T08:03:16.516Z,1.08
2023-04-02T08:06:11.946Z,1.17
2023-04-02T08:08:55.677Z,1.35
2023-04-02T08:11:44.175Z,1.20
2023-04-02T08:14:28.849Z,0.60
2023-04-02T08:17:16.232Z,4.03
2023-04-02T08:19:55.238Z,1.02
2023-04-02T08:22:36.118Z,1.35
2023-04-02T08:25:24.266Z,1.15
2023-04-02T08:31:10.298Z,1.02
2023-04-02T08:33:43.468Z,1.13
2023-04-02T08:36:29.807Z,0.90
2023-04-02T08:39:06.776Z,1.35
2023-04-02T08:42:02.245Z,1.45
2023-04-02T08:44:46.927Z,0.52
2023-04-02T08:47:39.823Z,1.45
2023-04-02T08:50:34.142Z,3.00
2023-04-02T08:53:19.098Z,0.77
2023-04-02T08:56:12.984Z,1.15
2023-04-02T08:59:04.821Z,0.50
2023-04-02T09:01:55.235Z,0.93
2023-04-02T09:04:32.104Z,1.67
2023-04-02T09:07:17.766Z,0.70
2023-04-02T09:09:58.130Z,1.00
2023-04-02T09:12:57.718Z,0.50
2023-04-02T09:15:42.944Z,1.15
2023-04-02T09:18:25.266Z,0.73
2023-04-02T09:21:06.895Z,1.60
2023-04-02T09:23:57.405Z,3.03
2023-04-02T09:26:59.885Z,2.10
2023-04-02T09:30:00.150Z,0.68
2023-04-02T09:36:06.726Z,1.38
2023-04-02T09:40:13.862Z,1.20
2023-04-02T09:46:21.959Z,1.50
2023-04-02T09:48:59.303Z,0.85
2023-04-02T09:51:41.496Z,1.08
2023-04-02T09:54:18.318Z,1.00
2023-04-02T09:57:51.565Z,1.02
2023-04-02T10:00:54.784Z,4.00
2023-04-02T10:03:32.275Z,1.42
2023-04-02T10:09:57.077Z,2.80
2023-04-02T10:12:51.560Z,2.08
2023-04-02T10:15:47.199Z,0.90
2023-04-02T10:19:31.546Z,1.73
2023-04-02T10:22:27.973Z,1.58
2023-04-02T10:26:07.514Z,1.38
2023-04-02T10:29:25.877Z,1.10
2023-04-02T10:32:14.922Z,2.00
2023-04-02T10:40:47.911Z,1.40
2023-04-02T10:46:22.434Z,1.33
2023-04-02T10:49:03.296Z,1.20
2023-04-02T10:51:40.775Z,1.05
2023-04-02T10:54:22.477Z,0.98
2023-04-02T10:56:52.501Z,1.83
2023-04-02T10:59:23.344Z,1.55
2023-04-02T11:01:52.592Z,2.77
2023-04-02T11:04:25.067Z,3.83
2023-04-02T11:07:11.154Z,2.58
2023-04-02T11:09:44.359Z,4.40
2023-04-02T11:12:20.544Z,1.83
2023-04-02T11:14:49.351Z,1.73
2023-04-02T11:17:19.952Z,1.50
2023-04-02T11:19:47.318Z,2.78
2023-04-02T11:22:17.651Z,1.23
2023-04-02T11:24:47.413Z,2.60
2023-04-02T11:27:25.662Z,4.32
2023-04-02T11:30:01.390Z,2.38
2023-04-02T11:32:36.042Z,2.97
2023-04-02T11:35:24.941Z,1.73
2023-04-02T11:37:54.773Z,4.22
2023-04-02T11:40:49.554Z,2.97
2023-04-02T11:43:51.734Z,4.38
2023-04-02T11:49:33.155Z,1.80
2023-04-02T11:52:11.463Z,3.08
2023-04-02T11:54:41.063Z,2.70
2023-04-02T11:57:22.857Z,2.53
2023-04-02T12:00:05.362Z,2.75
2023-04-02T12:02:51.973Z,1.95
2023-04-02T12:05:26.991Z,1.77
2023-04-02T12:08:19.542Z,2.95
2023-04-02T12:10:55.805Z,2.95
2023-04-02T12:13:48.721Z,1.63
2023-04-02T12:16:16.715Z,3.55
2023-04-02T12:18:46.010Z,3.47
2023-04-02T12:21:16.012Z,2.13
2023-04-02T12:23:46.144Z,2.40
2023-04-02T12:26:28.833Z,2.83
2023-04-02T12:29:14.407Z,2.85
2023-04-02T12:31:43.252Z,3.53
2023-04-02T12:34:14.681Z,4.20
2023-04-02T12:36:51.404Z,4.82
2023-04-02T12:39:18.594Z,3.92
2023-04-02T12:41:47.474Z,7.55
2023-04-02T12:44:16.353Z,9.85
2023-04-02T12:46:44.679Z,4.75
2023-04-02T12:49:23.421Z,7.07
2023-04-02T12:51:51.514Z,6.53
2023-04-02T12:54:19.311Z,6.28
2023-04-02T12:56:49.034Z,5.57
2023-04-02T12:59:30.755Z,5.40
2023-04-02T13:01:59.440Z,4.68
2023-04-02T13:04:27.050Z,5.15
2023-04-02T13:06:55.712Z,5.25
2023-04-02T13:09:30.362Z,7.00
2023-04-02T13:11:59.166Z,9.75
2023-04-02T13:14:27.413Z,6.03
2023-04-02T13:16:54.920Z,6.13
2023-04-02T13:19:28.280Z,8.68
2023-04-02T13:21:56.695Z,6.45
2023-04-02T13:24:25.432Z,7.40
2023-04-02T13:26:55.133Z,7.40
2023-04-02T13:29:28.786Z,7.95
2023-04-02T13:31:58.522Z,7.47
2023-04-02T13:34:26.421Z,8.65
2023-04-02T13:36:53.840Z,6.80
2023-04-02T13:39:21.274Z,8.63
2023-04-02T13:41:50.890Z,6.15
2023-04-02T13:44:20.708Z,6.80
2023-04-02T13:46:49.632Z,8.05
2023-04-02T13:49:17.184Z,5.75
2023-04-02T13:51:46.516Z,8.02
2023-04-02T13:54:23.850Z,8.65
2023-04-02T13:56:51.294Z,8.20
2023-04-02T13:59:18.806Z,8.05
2023-04-02T14:01:47.167Z,6.25
2023-04-02T14:04:20.801Z,9.95
2023-04-02T14:07:08.224Z,9.52
2023-04-02T14:09:45.866Z,12.85
2023-04-02T14:12:22.688Z,9.55
2023-04-02T14:15:05.710Z,11.88
2023-04-02T14:17:41.393Z,10.45
2023-04-02T14:20:24.906Z,9.02
2023-04-02T14:23:06.204Z,10.40
2023-04-02T14:25:42.575Z,5.90
2023-04-02T14:28:19.902Z,3.85
2023-04-02T14:30:53.569Z,4.90
2023-04-02T14:33:31.772Z,6.35
2023-04-02T14:36:10.085Z,3.58
2023-04-02T14:38:49.221Z,3.60
2023-04-02T14:41:22.609Z,5.68
2023-04-02T14:43:54.366Z,4.38
2023-04-02T14:48:56.837Z,5.07
2023-04-02T14:51:32.893Z,5.13
2023-04-02T14:54:06.993Z,8.35
2023-04-02T14:56:40.090Z,4.65
2023-04-02T14:59:21.903Z,5.85
2023-04-02T15:01:53.195Z,3.10
2023-04-02T15:04:25.705Z,4.25
2023-04-02T15:06:59.657Z,4.07
2023-04-02T15:09:31.633Z,4.57
2023-04-02T15:12:03.606Z,5.00
2023-04-02T15:14:35.154Z,3.35
2023-04-02T15:17:02.412Z,4.55
2023-04-02T15:19:29.827Z,3.47
2023-04-02T15:22:25.013Z,3.65
2023-04-02T15:25:03.295Z,3.28
2023-04-02T15:27:45.169Z,2.78
2023-04-02T15:30:14.614Z,4.55
2023-04-02T15:32:43.973Z,3.30
2023-04-02T15:35:21.975Z,3.75
2023-04-02T15:38:01.373Z,2.95
2023-04-02T15:40:46.713Z,2.63
2023-04-02T15:43:21.820Z,3.90
2023-04-02T15:46:07.845Z,3.30
2023-04-02T15:49:08.629Z,5.20
2023-04-02T15:51:48.413Z,3.95
2023-04-02T15:54:32.962Z,6.03
2023-04-02T15:57:10.912Z,3.65
2023-04-02T15:59:59.070Z,5.88
2023-04-02T16:02:47.766Z,2.78
2023-04-02T16:05:22.594Z,2.33
2023-04-02T16:08:08.862Z,3.10
2023-04-02T16:10:42.573Z,4.22
2023-04-02T16:13:19.635Z,3.08
2023-04-02T16:15:53.301Z,3.70
2023-04-02T16:18:32.830Z,4.40
2023-04-02T16:21:02.469Z,4.13
2023-04-02T16:23:33.480Z,3.53
2023-04-02T16:26:10.689Z,3.78
2023-04-02T16:28:46.058Z,3.53
2023-04-02T16:31:20.387Z,3.13
2023-04-02T16:34:00.155Z,2.70
2023-04-02T16:36:42.383Z,2.90
2023-04-02T16:39:20.031Z,3.22
2023-04-02T16:41:59.782Z,3.55
2023-04-02T16:44:36.485Z,3.42
2023-04-02T16:47:18.207Z,4.25
2023-04-02T16:49:52.107Z,4.43
2023-04-02T16:52:40.418Z,3.75
2023-04-02T16:55:25.704Z,4.28
2023-04-02T16:58:06.458Z,4.70
2023-04-02T17:00:41.064Z,3.80
2023-04-02T17:03:31.671Z,4.28
2023-04-02T17:06:04.567Z,4.75
2023-04-02T17:08:39.038Z,4.63
2023-04-02T17:11:07.640Z,4.65
2023-04-02T17:13:40.177Z,3.30
2023-04-02T17:16:16.761Z,5.65
2023-04-02T17:18:46.845Z,5.20
2023-04-02T17:21:17.397Z,5.57
2023-04-02T17:23:55.891Z,5.50
2023-04-02T17:26:27.735Z,3.65
2023-04-02T17:29:00.802Z,4.38
2023-04-02T17:31:31.293Z,3.97
2023-04-02T17:33:58.449Z,4.57
2023-04-02T17:36:33.642Z,8.40
2023-04-02T17:39:10.941Z,5.97
2023-04-02T17:41:43.535Z,6.63
2023-04-02T17:44:28.333Z,4.55
2023-04-02T17:47:05.295Z,8.93
2023-04-02T17:49:39.650Z,7.60
2023-04-02T17:52:15.564Z,6.07
2023-04-02T17:54:52.854Z,7.82
2023-04-02T17:57:34.807Z,4.03
2023-04-02T18:03:07.222Z,5.10
2023-04-02T18:05:42.297Z,3.88
2023-04-02T18:08:16.861Z,3.08
2023-04-02T18:10:51.797Z,4.63
2023-04-02T18:13:27.326Z,3.40
2023-04-02T18:16:13.491Z,4.05
2023-04-02T18:18:54.922Z,3.53
2023-04-02T18:21:29.174Z,2.88
2023-04-02T18:24:13.078Z,5.70
2023-04-02T18:26:50.775Z,4.63
2023-04-02T18:29:29.712Z,6.10
2023-04-02T18:32:10.624Z,3.92
2023-04-02T18:34:51.168Z,4.72
2023-04-02T18:37:28.814Z,16.55
2023-04-02T18:40:11.580Z,10.18
2023-04-02T18:42:50.189Z,15.95
2023-04-02T18:45:24.563Z,4.75
2023-04-02T18:48:00.861Z,6.47
2023-04-02T18:50:31.799Z,3.75
2023-04-02T18:53:01.764Z,4.78
2023-04-02T18:55:31.201Z,6.22
2023-04-02T18:58:02.639Z,4.80
2023-04-02T19:00:32.765Z,5.47
2023-04-02T19:03:07.152Z,3.72
2023-04-02T19:05:43.207Z,3.17
2023-04-02T19:08:16.386Z,2.75
2023-04-02T19:10:45.077Z,3.75
2023-04-02T19:13:14.644Z,2.13
2023-04-02T19:15:55.059Z,3.38
2023-04-02T19:18:35.783Z,3.28
2023-04-02T19:21:11.759Z,4.10
2023-04-02T19:23:54.672Z,2.70
2023-04-02T19:26:29.984Z,5.13
2023-04-02T19:29:10.786Z,5.60
2023-04-02T19:31:48.422Z,4.65
2023-04-02T19:34:24.627Z,3.65
2023-04-02T19:36:55.763Z,3.58
2023-04-02T19:40:02.915Z,3.20
2023-04-02T19:42:43.240Z,3.30
2023-04-02T19:45:33.325Z,4.97
2023-04-02T19:48:08.538Z,2.05
2023-04-02T19:50:37.390Z,4.13
2023-04-02T19:53:04.669Z,4.25
2023-04-02T19:55:31.899Z,6.85
2023-04-02T19:58:08.974Z,2.45
2023-04-02T20:00:44.754Z,3.63
2023-04-02T20:03:11.933Z,2.08
2023-04-02T20:05:40.439Z,3.45
2023-04-02T20:08:07.686Z,6.00
2023-04-02T20:10:35.044Z,6.55
2023-04-02T20:13:02.487Z,3.65
2023-04-02T20:15:29.742Z,3.92
2023-04-02T20:17:57.054Z,2.67
2023-04-02T20:20:24.387Z,1.67
2023-04-02T20:22:52.917Z,7.07
2023-04-02T20:25:20.092Z,4.15
2023-04-02T20:27:47.332Z,7.75
2023-04-02T20:30:14.822Z,7.03
2023-04-02T20:32:42.109Z,4.18
2023-04-02T20:35:09.609Z,3.15
2023-04-02T20:37:36.808Z,3.78
2023-04-02T20:40:06.705Z,2.42
2023-04-02T20:42:34.052Z,3.05
2023-04-02T20:45:01.187Z,3.28
2023-04-02T20:47:28.384Z,4.10
2023-04-02T20:49:55.524Z,3.55
2023-04-02T20:52:22.723Z,4.40
2023-04-02T20:54:50.406Z,3.80
2023-04-02T20:57:18.911Z,3.85
2023-04-02T20:59:46.095Z,3.88
2023-04-02T21:02:13.403Z,3.15
2023-04-02T21:04:40.547Z,6.30
2023-04-02T21:07:07.770Z,5.40
2023-04-02T21:09:34.923Z,10.18
2023-04-02T21:12:02.156Z,6.65
2023-04-02T21:14:30.712Z,7.60
2023-04-02T21:16:57.950Z,3.22
2023-04-02T21:19:25.157Z,5.35
2023-04-02T21:21:54.911Z,5.32
2023-04-02T21:24:22.093Z,4.93
2023-04-02T21:26:50.518Z,6.30
2023-04-02T21:29:18.074Z,6.10
2023-04-02T21:31:46.652Z,5.75
2023-04-02T21:34:16.425Z,10.82
2023-04-02T21:36:45.226Z,6.45
2023-04-02T21:39:17.130Z,6.65
2023-04-02T21:41:45.825Z,6.25
2023-04-02T21:44:14.753Z,16.15
2023-04-02T21:46:42.986Z,5.75
2023-04-02T21:49:12.991Z,4.82
2023-04-02T21:51:42.100Z,11.57
2023-04-02T21:54:09.637Z,34.78
2023-04-02T21:56:38.339Z,5.43
2023-04-02T21:59:07.272Z,9.93
2023-04-02T22:01:37.165Z,8.00
2023-04-02T22:04:06.324Z,4.65
2023-04-02T22:06:38.218Z,3.10
2023-04-02T22:11:35.942Z,4.13
2023-04-02T22:14:03.684Z,7.68
2023-04-02T22:16:32.790Z,4.68
2023-04-02T22:19:01.921Z,5.07
2023-04-02T22:21:30.238Z,6.10
2023-04-02T22:24:01.238Z,4.25
2023-04-02T22:26:28.712Z,6.05
2023-04-02T22:28:56.054Z,7.55
2023-04-02T22:31:25.698Z,4.95
2023-04-02T22:33:54.758Z,4.32
2023-04-02T22:36:23.361Z,6.03
2023-04-02T22:38:50.556Z,4.53
2023-04-02T22:41:20.966Z,4.53
2023-04-02T22:43:49.731Z,5.72
2023-04-02T22:46:18.873Z,5.82
2023-04-02T22:48:47.382Z,3.78
2023-04-02T22:51:16.824Z,5.95
2023-04-02T22:53:44.011Z,3.95
2023-04-02T22:56:13.500Z,3.67
2023-04-02T22:58:42.373Z,4.65
2023-04-02T23:01:12.147Z,4.80
2023-04-02T23:03:39.555Z,4.35
2023-04-02T23:06:09.229Z,6.93
2023-04-02T23:08:37.637Z,8.20
2023-04-02T23:11:06.942Z,6.88
2023-04-02T23:13:35.015Z,7.78
2023-04-02T23:16:06.802Z,6.07
2023-04-02T23:18:35.749Z,3.10
2023-04-02T23:21:04.282Z,4.40
2023-04-02T23:23:32.268Z,5.85
2023-04-02T23:26:03.751Z,4.97
2023-04-02T23:28:30.915Z,3.83
2023-04-02T23:30:58.056Z,5.95
2023-04-02T23:33:26.633Z,5.63
2023-04-02T23:35:53.873Z,5.35
2023-04-02T23:38:21.101Z,5.03
2023-04-02T23:40:48.241Z,6.18
2023-04-02T23:43:15.435Z,7.03
2023-04-02T23:45:47.023Z,5.55
2023-04-02T23:48:14.439Z,8.68
2023-04-02T23:50:43.879Z,5.97
2023-04-02T23:53:11.052Z,3.72
2023-04-02T23:55:38.489Z,5.00
2023-04-02T23:58:05.678Z,4.65
